Terminal Aerodrome Forecast
Issued by NWS Cleveland, OH

Home | Current Version | Previous Version | Text Only | Print | Product List | Glossary Off
Versions: 1 2 3 4 5 6 7 8 9 10 11 12 13 14 15 16 17 18 19

000
FTUS41 KCLE 291400 AAA
TAFTOL
TAF AMD
KTOL 291424Z 2914/3012 16005KT P6SM BKN045 OVC090
     FM291600 23012KT 4SM BR VCSH OVC025
     FM291800 22014KT 4SM -DZ BR SCT008 OVC025
      TEMPO 2918/2920 2SM -RASN OVC008
     FM292000 30018G30KT 3SM -SN BR OVC004
     FM300100 30015G25KT P6SM OVC015=

USA.gov is the U.S. government's official web portal to all federal, state and local government web resources and services.